createdAt,value
2018-11-04T00:01:38.891Z,1.35
2018-11-04T00:04:07.373Z,1.40
2018-11-04T00:06:35.822Z,1.20
2018-11-04T00:09:05.293Z,1.40
2018-11-04T00:11:33.591Z,1.00
2018-11-04T00:14:01.798Z,1.57
2018-11-04T00:16:29.994Z,1.17
2018-11-04T00:18:58.750Z,0.85
2018-11-04T00:21:27.174Z,1.20
2018-11-04T00:23:55.436Z,1.02
2018-11-04T00:26:23.687Z,1.10
2018-11-04T00:28:51.883Z,1.57
2018-11-04T00:31:20.078Z,1.20
2018-11-04T00:33:48.302Z,1.40
2018-11-04T00:36:16.703Z,1.40
2018-11-04T00:38:44.938Z,1.35
2018-11-04T00:41:13.223Z,1.32
2018-11-04T00:43:41.590Z,1.20
2018-11-04T00:46:09.862Z,1.98
2018-11-04T00:48:38.071Z,1.60
2018-11-04T00:51:06.282Z,1.10
2018-11-04T00:53:35.026Z,1.65
2018-11-04T00:56:03.234Z,1.80
2018-11-04T00:58:31.655Z,1.50
2018-11-04T01:00:59.922Z,1.35
2018-11-04T01:03:28.134Z,1.70
2018-11-04T01:05:56.330Z,1.10
2018-11-04T01:08:24.755Z,1.30
2018-11-04T01:10:53.325Z,1.10
2018-11-04T01:13:21.714Z,1.30
2018-11-04T01:15:49.922Z,1.30
2018-11-04T01:18:18.278Z,1.60
2018-11-04T01:20:46.814Z,1.55
2018-11-04T01:23:15.158Z,1.25
2018-11-04T01:25:43.366Z,0.75
2018-11-04T01:28:11.782Z,1.75
2018-11-04T01:30:40.059Z,1.17
2018-11-04T01:33:08.269Z,1.12
2018-11-04T01:35:36.476Z,1.15
2018-11-04T01:38:04.714Z,1.47
2018-11-04T01:40:33.502Z,1.57
2018-11-04T01:43:01.760Z,1.40
2018-11-04T01:45:30.131Z,1.00
2018-11-04T01:47:58.333Z,1.20
2018-11-04T01:50:26.755Z,1.12
2018-11-04T01:52:54.951Z,1.40
2018-11-04T01:55:23.155Z,1.55
2018-11-04T01:57:51.514Z,1.82
2018-11-04T02:00:19.742Z,1.00
2018-11-04T02:02:47.956Z,1.30
2018-11-04T02:05:16.746Z,2.15
2018-11-04T02:07:45.022Z,1.30
2018-11-04T02:10:14.864Z,1.70
2018-11-04T02:12:43.084Z,1.75
2018-11-04T02:15:12.330Z,1.35
2018-11-04T02:17:40.535Z,1.35
2018-11-04T02:20:10.327Z,2.05
2018-11-04T02:22:39.116Z,1.30
2018-11-04T02:25:08.289Z,1.22
2018-11-04T02:27:36.494Z,1.37
2018-11-04T02:30:05.353Z,1.07
2018-11-04T02:32:33.586Z,1.25
2018-11-04T02:35:02.132Z,1.22
2018-11-04T02:37:30.410Z,1.12
2018-11-04T02:39:58.757Z,2.10
2018-11-04T02:42:27.038Z,1.65
2018-11-04T02:44:55.307Z,1.25
2018-11-04T02:47:23.499Z,1.20
2018-11-04T02:49:51.694Z,1.17
2018-11-04T02:52:19.946Z,1.10
2018-11-04T02:54:48.447Z,1.42
2018-11-04T02:57:16.667Z,2.92
2018-11-04T02:59:44.933Z,1.20
2018-11-04T03:02:13.247Z,1.32
2018-11-04T03:04:41.446Z,1.70
2018-11-04T03:07:09.670Z,0.93
2018-11-04T03:09:38.071Z,1.60
2018-11-04T03:12:06.283Z,1.30
2018-11-04T03:14:34.503Z,1.30
2018-11-04T03:17:03.650Z,1.30
2018-11-04T03:19:31.888Z,1.27
2018-11-04T03:22:00.100Z,1.50
2018-11-04T03:24:29.036Z,1.60
2018-11-04T03:26:57.239Z,1.75
2018-11-04T03:29:26.182Z,1.60
2018-11-04T03:31:54.897Z,1.55
2018-11-04T03:34:23.190Z,1.30
2018-11-04T03:36:51.398Z,1.30
2018-11-04T03:39:19.606Z,1.75
2018-11-04T03:41:47.812Z,1.30
2018-11-04T03:44:16.002Z,2.37
2018-11-04T03:46:44.258Z,1.25
2018-11-04T03:49:12.931Z,1.37
2018-11-04T03:51:41.231Z,1.27
2018-11-04T03:54:09.905Z,1.57
2018-11-04T03:56:38.111Z,1.10
2018-11-04T03:59:06.318Z,1.65
2018-11-04T04:01:34.742Z,1.32
2018-11-04T04:04:02.939Z,1.57
2018-11-04T04:06:31.603Z,3.15
2018-11-04T04:09:00.309Z,1.47
2018-11-04T04:11:28.670Z,1.70
2018-11-04T04:13:56.874Z,2.00
2018-11-04T04:16:25.097Z,1.50
2018-11-04T04:18:53.339Z,1.50
2018-11-04T04:21:21.541Z,1.37
2018-11-04T04:23:49.923Z,1.45
2018-11-04T04:26:18.120Z,1.87
2018-11-04T04:28:46.603Z,2.02
2018-11-04T04:31:15.224Z,1.70
2018-11-04T04:33:43.839Z,1.40
2018-11-04T04:36:12.056Z,1.35
2018-11-04T04:38:40.272Z,2.27
2018-11-04T04:41:08.478Z,1.57
2018-11-04T04:43:36.761Z,1.90
2018-11-04T04:46:05.018Z,1.17
2018-11-04T04:48:33.245Z,1.55
2018-11-04T04:51:01.535Z,1.30
2018-11-04T04:53:29.743Z,1.60
2018-11-04T04:55:58.323Z,2.05
2018-11-04T04:58:26.738Z,1.22
2018-11-04T05:00:55.275Z,2.15
2018-11-04T05:03:24.106Z,1.95
2018-11-04T05:05:52.318Z,2.47
2018-11-04T05:08:20.681Z,1.37
2018-11-04T05:10:49.751Z,1.80
2018-11-04T05:13:18.037Z,1.98
2018-11-04T05:15:46.286Z,1.80
2018-11-04T05:18:14.486Z,1.77
2018-11-04T05:20:43.198Z,1.40
2018-11-04T05:23:11.451Z,1.55
2018-11-04T05:25:39.834Z,2.22
2018-11-04T05:28:08.730Z,1.45
2018-11-04T05:30:37.006Z,1.52
2018-11-04T05:33:06.224Z,1.98
2018-11-04T05:35:34.446Z,1.70
2018-11-04T05:38:02.643Z,2.12
2018-11-04T05:40:30.862Z,1.65
2018-11-04T05:42:59.393Z,2.20
2018-11-04T05:45:28.006Z,2.20
2018-11-04T05:47:56.222Z,1.80
2018-11-04T05:50:24.432Z,1.90
2018-11-04T05:52:52.886Z,1.95
2018-11-04T05:55:21.087Z,2.00
2018-11-04T05:57:49.310Z,1.82
2018-11-04T06:00:17.530Z,2.20
2018-11-04T06:02:45.730Z,1.60
2018-11-04T06:05:13.930Z,2.00
2018-11-04T06:07:42.138Z,1.75
2018-11-04T06:10:10.771Z,1.65
2018-11-04T06:12:38.991Z,2.58
2018-11-04T06:15:08.218Z,1.67
2018-11-04T06:17:36.895Z,1.80
2018-11-04T06:20:05.683Z,1.65
2018-11-04T06:22:33.934Z,1.95
2018-11-04T06:25:02.430Z,1.85
2018-11-04T06:27:30.684Z,1.87
2018-11-04T06:29:59.441Z,1.85
2018-11-04T06:32:27.686Z,2.15
2018-11-04T06:34:55.918Z,1.70
2018-11-04T06:37:24.183Z,2.37
2018-11-04T06:39:52.382Z,1.92
2018-11-04T06:42:20.585Z,1.57
2018-11-04T06:44:49.099Z,1.70
2018-11-04T06:47:17.337Z,1.55
2018-11-04T06:49:45.559Z,2.25
2018-11-04T06:52:13.922Z,2.22
2018-11-04T06:54:42.171Z,2.12
2018-11-04T06:57:10.375Z,2.20
2018-11-04T06:59:38.644Z,1.55
2018-11-04T07:02:06.862Z,1.87
2018-11-04T07:04:35.090Z,2.00
2018-11-04T07:07:03.604Z,1.65
2018-11-04T07:09:31.810Z,1.70
2018-11-04T07:18:44.002Z,1.62
2018-11-04T07:21:12.374Z,2.00
2018-11-04T07:23:40.606Z,1.80
2018-11-04T07:26:08.902Z,1.40
2018-11-04T07:28:37.179Z,1.90
2018-11-04T07:31:05.762Z,2.67
2018-11-04T07:33:34.026Z,1.55
2018-11-04T07:36:02.443Z,1.98
2018-11-04T07:38:30.654Z,1.72
2018-11-04T07:40:58.986Z,1.50
2018-11-04T07:43:27.199Z,1.80
2018-11-04T07:45:55.527Z,1.98
2018-11-04T07:48:23.802Z,1.62
2018-11-04T07:50:51.998Z,1.87
2018-11-04T07:53:20.250Z,1.45
2018-11-04T07:55:48.452Z,1.80
2018-11-04T07:58:16.662Z,1.60
2018-11-04T08:00:45.234Z,1.47
2018-11-04T08:03:13.719Z,1.87
2018-11-04T08:05:41.919Z,1.67
2018-11-04T08:08:10.143Z,2.20
2018-11-04T08:10:38.698Z,1.60
2018-11-04T08:13:07.238Z,1.75
2018-11-04T08:15:35.476Z,1.75
2018-11-04T08:18:03.750Z,1.95
2018-11-04T08:20:32.090Z,2.62
2018-11-04T08:23:00.294Z,2.15
2018-11-04T08:25:28.582Z,1.60
2018-11-04T08:27:56.798Z,2.00
2018-11-04T08:30:25.278Z,2.60
2018-11-04T08:32:53.598Z,2.50
2018-11-04T08:35:21.867Z,2.33
2018-11-04T08:37:50.106Z,1.65
2018-11-04T08:40:18.683Z,1.45
2018-11-04T08:42:47.535Z,1.75
2018-11-04T08:45:16.072Z,2.00
2018-11-04T08:47:44.779Z,1.50
2018-11-04T08:50:13.730Z,1.52
2018-11-04T08:52:42.357Z,1.77
2018-11-04T08:55:11.452Z,2.30
2018-11-04T08:57:40.508Z,2.12
2018-11-04T09:00:13.074Z,1.87
2018-11-04T09:02:42.016Z,1.50
2018-11-04T09:05:11.395Z,2.77
2018-11-04T09:07:40.220Z,2.83
2018-11-04T09:10:12.982Z,1.62
2018-11-04T09:12:42.599Z,1.70
2018-11-04T09:15:11.987Z,2.22
2018-11-04T09:17:40.683Z,1.20
2018-11-04T09:20:12.961Z,1.62
2018-11-04T09:22:42.982Z,1.60
2018-11-04T09:25:11.999Z,1.70
2018-11-04T09:27:40.539Z,1.22
2018-11-04T09:30:12.115Z,1.65
2018-11-04T09:32:40.675Z,1.90
2018-11-04T09:35:10.544Z,1.75
2018-11-04T09:37:38.986Z,1.10
2018-11-04T09:40:09.816Z,1.60
2018-11-04T09:42:38.419Z,1.45
2018-11-04T09:45:07.711Z,1.60
2018-11-04T09:47:36.340Z,1.37
2018-11-04T09:50:06.464Z,1.30
2018-11-04T09:52:35.002Z,1.80
2018-11-04T09:55:03.727Z,1.30
2018-11-04T09:57:32.319Z,1.42
2018-11-04T10:00:00.880Z,1.35
2018-11-04T10:02:29.551Z,1.42
2018-11-04T10:04:58.112Z,1.47
2018-11-04T10:07:26.655Z,1.27
2018-11-04T10:09:55.262Z,1.15
2018-11-04T10:12:23.883Z,1.55
2018-11-04T10:14:52.535Z,1.20
2018-11-04T10:17:21.496Z,1.32
2018-11-04T10:19:50.225Z,1.00
2018-11-04T10:22:18.667Z,1.55
2018-11-04T10:24:47.207Z,1.60
2018-11-04T10:27:15.784Z,1.65
2018-11-04T10:29:44.345Z,1.72
2018-11-04T10:32:13.060Z,1.60
2018-11-04T10:34:41.609Z,1.22
2018-11-04T10:37:10.761Z,1.60
2018-11-04T10:39:39.244Z,1.40
2018-11-04T10:42:08.283Z,1.10
2018-11-04T10:44:36.774Z,1.30
2018-11-04T10:47:06.099Z,1.50
2018-11-04T10:49:34.801Z,1.30
2018-11-04T10:52:03.564Z,1.37
2018-11-04T10:54:32.544Z,1.40
2018-11-04T10:57:01.149Z,1.20
2018-11-04T10:59:29.929Z,1.10
2018-11-04T11:01:58.592Z,1.22
2018-11-04T11:04:27.216Z,0.98
2018-11-04T11:06:56.680Z,1.50
2018-11-04T11:09:25.214Z,1.37
2018-11-04T11:11:54.099Z,1.17
2018-11-04T11:14:22.648Z,1.40
2018-11-04T11:16:51.603Z,0.95
2018-11-04T11:19:20.148Z,1.25
2018-11-04T11:21:48.711Z,1.20
2018-11-04T11:24:17.607Z,1.15
2018-11-04T11:26:46.196Z,1.10
2018-11-04T11:29:14.741Z,0.70
2018-11-04T11:31:43.304Z,1.15
2018-11-04T11:34:11.883Z,1.00
2018-11-04T11:36:40.444Z,0.90
2018-11-04T11:39:10.811Z,1.07
2018-11-04T11:41:39.387Z,1.10
2018-11-04T11:44:08.265Z,1.10
2018-11-04T11:46:36.875Z,0.80
2018-11-04T11:49:05.791Z,0.80
2018-11-04T11:51:34.367Z,1.20
2018-11-04T11:54:03.045Z,0.90
2018-11-04T11:56:31.616Z,1.10
2018-11-04T11:59:00.160Z,0.70
2018-11-04T12:01:28.976Z,1.07
2018-11-04T12:03:57.519Z,0.88
2018-11-04T12:06:26.098Z,1.10
2018-11-04T12:08:54.646Z,0.90
2018-11-04T12:11:23.231Z,1.05
2018-11-04T12:13:52.463Z,0.90
2018-11-04T12:16:21.027Z,0.78
2018-11-04T12:18:49.843Z,0.95
2018-11-04T12:21:18.431Z,0.90
2018-11-04T12:23:47.063Z,0.90
2018-11-04T12:26:15.567Z,0.90
2018-11-04T12:28:44.390Z,0.82
2018-11-04T12:31:13.275Z,0.98
2018-11-04T12:33:41.847Z,0.72
2018-11-04T12:36:11.062Z,0.85
2018-11-04T12:38:39.806Z,0.90
2018-11-04T12:41:08.658Z,0.80
2018-11-04T12:43:37.215Z,0.93
2018-11-04T12:46:05.887Z,0.80
2018-11-04T12:48:37.472Z,1.27
2018-11-04T12:51:07.331Z,0.78
2018-11-04T12:53:36.030Z,1.30
2018-11-04T12:56:05.047Z,1.07
2018-11-04T12:58:33.604Z,1.10
2018-11-04T13:01:02.488Z,0.80
2018-11-04T13:03:31.051Z,0.70
2018-11-04T13:05:59.580Z,0.90
2018-11-04T13:08:28.239Z,0.80
2018-11-04T13:10:56.906Z,1.00
2018-11-04T13:13:25.498Z,1.17
2018-11-04T13:15:55.298Z,1.15
2018-11-04T13:18:24.045Z,1.00
2018-11-04T13:20:52.760Z,1.07
2018-11-04T13:23:21.819Z,0.80
2018-11-04T13:25:50.410Z,1.00
2018-11-04T13:28:18.946Z,0.90
2018-11-04T13:30:47.706Z,0.90
2018-11-04T13:33:16.230Z,1.47
2018-11-04T13:35:45.402Z,1.00
2018-11-04T13:38:14.012Z,1.00
2018-11-04T13:40:42.571Z,1.10
2018-11-04T13:43:11.148Z,0.85
2018-11-04T13:45:40.064Z,0.80
2018-11-04T13:48:08.622Z,0.70
2018-11-04T13:50:37.258Z,1.02
2018-11-04T13:53:06.131Z,0.90
2018-11-04T13:55:34.652Z,0.93
2018-11-04T13:58:03.303Z,0.80
2018-11-04T14:00:31.843Z,0.90
2018-11-04T14:03:00.559Z,1.10
2018-11-04T14:05:29.107Z,1.12
2018-11-04T14:07:57.658Z,0.80
2018-11-04T14:10:26.210Z,1.02
2018-11-04T14:12:54.794Z,1.00
2018-11-04T14:15:23.331Z,0.90
2018-11-04T14:17:51.879Z,1.00
2018-11-04T14:20:20.648Z,1.15
2018-11-04T14:22:49.174Z,1.00
2018-11-04T14:25:17.738Z,1.20
2018-11-04T14:27:46.885Z,1.00
2018-11-04T14:30:16.418Z,1.07
2018-11-04T14:32:45.273Z,1.90
2018-11-04T14:35:14.203Z,1.30
2018-11-04T14:37:43.706Z,1.00
2018-11-04T14:40:13.639Z,0.90
2018-11-04T14:42:43.000Z,1.10
2018-11-04T14:45:11.572Z,1.20
2018-11-04T14:47:40.115Z,1.40
2018-11-04T14:50:12.453Z,1.25
2018-11-04T14:52:41.035Z,1.10
2018-11-04T14:55:09.683Z,1.45
2018-11-04T14:57:38.619Z,1.40
2018-11-04T15:00:11.917Z,0.85
2018-11-04T15:02:40.578Z,1.27
2018-11-04T15:05:11.047Z,1.02
2018-11-04T15:07:39.748Z,1.20
2018-11-04T15:10:11.427Z,1.27
2018-11-04T15:12:40.088Z,1.40
2018-11-04T15:15:10.804Z,1.07
2018-11-04T15:17:39.532Z,1.22
2018-11-04T15:20:08.835Z,1.57
2018-11-04T15:22:41.442Z,1.20
2018-11-04T15:25:10.011Z,1.30
2018-11-04T15:27:38.550Z,1.15
2018-11-04T15:30:08.319Z,1.10
2018-11-04T15:32:36.917Z,1.12
2018-11-04T15:35:05.547Z,1.50
2018-11-04T15:37:34.395Z,1.40
2018-11-04T15:40:02.979Z,1.70
2018-11-04T15:42:31.519Z,1.25
2018-11-04T15:45:00.060Z,1.20
2018-11-04T15:47:28.954Z,1.37
2018-11-04T15:49:57.544Z,1.42
2018-11-04T15:52:27.139Z,1.70
2018-11-04T15:54:56.127Z,1.45
2018-11-04T15:57:24.655Z,1.10
2018-11-04T15:59:54.081Z,1.50
2018-11-04T16:02:22.647Z,1.52
2018-11-04T16:04:51.192Z,2.20
2018-11-04T16:07:19.744Z,2.17
2018-11-04T16:09:48.532Z,1.35
2018-11-04T16:12:17.503Z,1.50
2018-11-04T16:14:46.019Z,2.70
2018-11-04T16:17:14.929Z,2.20
2018-11-04T16:19:43.467Z,1.80
2018-11-04T16:22:11.999Z,2.85
2018-11-04T16:24:40.843Z,2.08
2018-11-04T16:27:09.398Z,2.05
2018-11-04T16:29:37.919Z,1.95
2018-11-04T16:32:06.839Z,1.70
2018-11-04T16:34:35.332Z,1.32
2018-11-04T16:37:04.315Z,1.67
2018-11-04T16:39:32.847Z,1.85
2018-11-04T16:42:01.399Z,1.90
2018-11-04T16:44:30.416Z,1.85
2018-11-04T16:46:58.930Z,2.25
2018-11-04T16:49:27.490Z,1.40
2018-11-04T16:51:56.048Z,2.37
2018-11-04T16:54:24.581Z,1.82
2018-11-04T16:56:54.211Z,1.90
2018-11-04T16:59:24.191Z,1.82
2018-11-04T17:01:52.731Z,2.55
2018-11-04T17:04:21.620Z,1.92
2018-11-04T17:06:50.019Z,2.62
2018-11-04T17:09:18.559Z,2.95
2018-11-04T17:11:47.142Z,2.08
2018-11-04T17:14:15.702Z,2.00
2018-11-04T17:16:44.259Z,2.40
2018-11-04T17:19:12.809Z,2.58
2018-11-04T17:21:41.350Z,1.80
2018-11-04T17:24:10.576Z,2.60
2018-11-04T17:26:39.155Z,2.98
2018-11-04T17:29:08.018Z,1.92
2018-11-04T17:31:37.450Z,2.35
2018-11-04T17:34:06.627Z,2.20
2018-11-04T17:36:35.733Z,2.98
2018-11-04T17:39:06.147Z,1.98
2018-11-04T17:41:34.693Z,2.30
2018-11-04T17:44:03.247Z,2.05
2018-11-04T17:46:31.825Z,2.00
2018-11-04T17:49:01.119Z,2.20
2018-11-04T17:51:29.682Z,2.22
2018-11-04T17:53:58.234Z,2.60
2018-11-04T17:56:26.983Z,2.33
2018-11-04T17:58:55.935Z,3.45
2018-11-04T18:01:24.489Z,2.50
2018-11-04T18:03:53.062Z,3.10
2018-11-04T18:06:21.642Z,3.87
2018-11-04T18:08:50.297Z,4.97
2018-11-04T18:11:18.868Z,2.12
2018-11-04T18:13:47.502Z,2.37
2018-11-04T18:16:16.151Z,1.92
2018-11-04T18:18:44.936Z,2.20
2018-11-04T18:21:13.469Z,2.30
2018-11-04T18:23:42.023Z,2.27
2018-11-04T18:26:10.569Z,1.80
2018-11-04T18:28:39.347Z,1.90
2018-11-04T18:31:07.903Z,1.70
2018-11-04T18:33:36.474Z,2.15
2018-11-04T18:36:05.559Z,2.90
2018-11-04T18:38:34.407Z,2.52
2018-11-04T18:41:02.944Z,2.42
2018-11-04T18:43:32.230Z,1.80
2018-11-04T18:46:00.767Z,2.20
2018-11-04T18:48:29.330Z,2.20
2018-11-04T18:50:57.892Z,2.17
2018-11-04T18:53:26.431Z,2.10
2018-11-04T18:55:55.510Z,2.05
2018-11-04T18:58:24.104Z,2.50
2018-11-04T19:00:52.640Z,2.30
2018-11-04T19:03:21.188Z,2.30
2018-11-04T19:05:49.747Z,1.92
2018-11-04T19:08:18.363Z,2.20
2018-11-04T19:10:46.923Z,2.33
2018-11-04T19:13:15.520Z,2.30
2018-11-04T19:15:44.067Z,2.30
2018-11-04T19:18:12.872Z,2.45
2018-11-04T19:20:42.043Z,4.42
2018-11-04T19:23:10.668Z,12.03
2018-11-04T19:25:39.203Z,5.00
2018-11-04T19:28:07.767Z,2.10
2018-11-04T19:30:36.727Z,2.10
2018-11-04T19:33:05.849Z,2.08
2018-11-04T19:35:34.375Z,2.62
2018-11-04T19:38:03.195Z,1.80
2018-11-04T19:40:31.747Z,2.80
2018-11-04T19:43:00.322Z,2.10
2018-11-04T19:45:28.880Z,2.83
2018-11-04T19:47:57.441Z,2.85
2018-11-04T19:50:26.011Z,2.77
2018-11-04T19:52:54.551Z,2.67
2018-11-04T19:55:23.127Z,2.17
2018-11-04T19:57:51.679Z,2.92
2018-11-04T20:00:20.222Z,3.50
2018-11-04T20:02:48.978Z,3.20
2018-11-04T20:05:17.549Z,2.33
2018-11-04T20:07:46.100Z,2.65
2018-11-04T20:10:17.038Z,3.62
2018-11-04T20:12:50.960Z,3.62
2018-11-04T20:15:19.527Z,4.33
2018-11-04T20:17:49.240Z,4.45
2018-11-04T20:20:24.965Z,6.70
2018-11-04T20:22:53.653Z,6.70
2018-11-04T20:25:27.811Z,4.35
2018-11-04T20:27:56.479Z,3.65
2018-11-04T20:30:25.153Z,2.90
2018-11-04T20:32:59.124Z,2.60
2018-11-04T20:35:27.662Z,2.55
2018-11-04T20:37:56.403Z,2.50
2018-11-04T20:40:30.351Z,3.20
2018-11-04T20:42:58.919Z,3.42
2018-11-04T20:45:27.863Z,2.45
2018-11-04T20:48:01.633Z,2.90
2018-11-04T20:50:35.498Z,2.45
2018-11-04T20:53:04.622Z,2.33
2018-11-04T20:55:38.536Z,2.90
2018-11-04T20:58:07.198Z,2.83
2018-11-04T21:00:35.670Z,3.25
2018-11-04T21:03:04.496Z,3.08
2018-11-04T21:05:33.057Z,2.70
2018-11-04T21:08:01.619Z,7.40
2018-11-04T21:10:30.212Z,5.60
2018-11-04T21:12:58.750Z,7.42
2018-11-04T21:15:27.755Z,10.20
2018-11-04T21:17:57.387Z,14.23
2018-11-04T21:20:26.007Z,9.35
2018-11-04T21:22:54.532Z,4.47
2018-11-04T21:25:23.183Z,3.83
2018-11-04T21:27:51.626Z,4.58
2018-11-04T21:30:20.139Z,4.58
2018-11-04T21:32:49.217Z,3.72
2018-11-04T21:35:17.855Z,4.70
2018-11-04T21:37:46.474Z,3.92
2018-11-04T21:40:14.943Z,4.15
2018-11-04T21:42:43.630Z,3.67
2018-11-04T21:45:13.777Z,4.10
2018-11-04T21:47:42.889Z,4.15
2018-11-04T21:50:12.379Z,3.25
2018-11-04T21:52:40.919Z,4.95
2018-11-04T21:55:11.838Z,3.60
2018-11-04T21:57:41.307Z,4.28
2018-11-04T22:00:12.574Z,4.45
2018-11-04T22:02:41.319Z,4.25
2018-11-04T22:05:10.639Z,4.10
2018-11-04T22:07:40.235Z,4.30
2018-11-04T22:10:12.107Z,5.47
2018-11-04T22:12:41.292Z,4.40
2018-11-04T22:15:10.312Z,4.60
2018-11-04T22:17:39.804Z,4.80
2018-11-04T22:20:10.625Z,4.25
2018-11-04T22:22:39.727Z,4.67
2018-11-04T22:25:08.997Z,6.12
2018-11-04T22:27:37.523Z,5.60
2018-11-04T22:30:07.191Z,6.10
2018-11-04T22:32:36.101Z,5.10
2018-11-04T22:35:05.378Z,6.05
2018-11-04T22:37:34.083Z,6.00
2018-11-04T22:40:02.647Z,5.58
2018-11-04T22:42:31.600Z,6.10
2018-11-04T22:45:00.147Z,5.92
2018-11-04T22:47:28.684Z,5.40
2018-11-04T22:49:57.303Z,4.62
2018-11-04T22:52:25.855Z,4.10
2018-11-04T22:54:54.391Z,4.42
2018-11-04T22:58:52.090Z,5.28
2018-11-04T23:01:20.729Z,5.10
2018-11-04T23:03:49.275Z,3.85
2018-11-04T23:06:17.815Z,4.78
2018-11-04T23:08:46.463Z,3.60
2018-11-04T23:11:15.209Z,4.75
2018-11-04T23:13:43.737Z,4.62
2018-11-04T23:16:12.283Z,2.60
2018-11-04T23:18:40.972Z,4.15
2018-11-04T23:21:09.502Z,3.75
2018-11-04T23:23:38.059Z,3.22
2018-11-04T23:26:07.719Z,2.98
2018-11-04T23:28:36.625Z,2.70
2018-11-04T23:31:05.215Z,2.92
2018-11-04T23:33:33.765Z,3.40
2018-11-04T23:36:02.357Z,3.98
2018-11-04T23:38:30.866Z,2.90
2018-11-04T23:40:59.792Z,3.80
2018-11-04T23:43:28.327Z,3.98
2018-11-04T23:45:56.855Z,3.42
2018-11-04T23:48:25.386Z,2.95
2018-11-04T23:50:53.919Z,3.42
2018-11-04T23:53:22.864Z,2.70
2018-11-04T23:55:51.414Z,2.65
2018-11-04T23:58:20.559Z,6.33
